Have a Safe July 4th! 

Flight Track Log - Related Links

Times and Time Zones

All times are in EDT time to prevent confusion due to time zone crossing. See the CRQ461 flight status page for this flight to view local times or setup timezone preferences in your user account.

Time Position Orientation Groundspeed Altitude Reporting Facility
EDT Latitude Longitude Course Direction KTS MPH feet Rate Location/Type
Mon 08:03:48 AM 44.2500 -76.6167 55° Northeast 190 219 4,100  Level Montreal Center
Mon 08:04:48 AM 44.2833 -76.5833 36° Northeast 220 253 5,200 1,650 Climbing Montreal Center
Mon 08:05:48 AM 44.3333 -76.5000 50° Northeast 220 253 7,400 2,100 Climbing Montreal Center
Mon 08:06:48 AM 44.3833 -76.4667 25° Northeast 200 230 9,400 2,000 Climbing Montreal Center
Mon 08:07:00 AM 44.4287 -76.1260 55° Northeast  Level FlightAware Approximate
Mon 08:07:48 AM 44.4000 -76.3833 74° East 210 242 11,400  Level Montreal Center
Mon 08:08:00 AM 44.4661 -76.0513 55° Northeast  Level FlightAware Approximate
Mon 08:08:48 AM 44.4333 -76.3167 55° Northeast 220 253 13,200  Level Montreal Center
Mon 08:09:00 AM 44.5035 -75.9765 55° Northeast  Level FlightAware Approximate
Mon 08:09:48 AM 44.4667 -76.2333 61° Northeast 230 265 14,600  Level Montreal Center
Mon 08:10:48 AM 44.5000 -76.1500 61° Northeast 240 276 16,000 1,200 Climbing Montreal Center
Mon 08:11:48 AM 44.5333 -76.0667 61° Northeast 250 288 17,000 500 Climbing Montreal Center
Mon 08:12:48 AM 44.5833 -75.9667 55° Northeast 280 322 17,000  Level Montreal Center
Mon 08:13:48 AM 44.6167 -75.8667 65° Northeast 290 334 17,000  Level Montreal Center
Mon 08:14:48 AM 44.6500 -75.7833 61° Northeast 290 334 17,000  Level Montreal Center
Mon 08:15:48 AM 44.7000 -75.6833 55° Northeast 290 334 17,000  Level Montreal Center
Mon 08:16:48 AM 44.7333 -75.5667 68° East 290 334 17,000  Level Montreal Center
Mon 08:17:48 AM 44.7667 -75.4667 65° Northeast 290 334 17,000  Level Montreal Center
Mon 08:18:48 AM 44.8167 -75.3833 50° Northeast 290 334 17,000  Level Montreal Center
Mon 08:19:48 AM 44.8500 -75.2833 65° Northeast 290 334 17,000 -50 Level Montreal Center
Mon 08:20:48 AM 44.8833 -75.1833 65° Northeast 290 334 16,900 -450 Descending Montreal Center
Mon 08:21:48 AM 44.9333 -75.0667 59° Northeast 310 357 16,100 -450 Descending Montreal Center
Mon 08:22:48 AM 44.9833 -74.9667 55° Northeast 300 345 16,000 -50 Descending Montreal Center
Mon 08:23:48 AM 45.0167 -74.8500 68° East 300 345 16,000  Level Montreal Center
Mon 08:24:48 AM 45.0500 -74.7667 60° Northeast 290 334 16,000  Level Montreal Center
Mon 08:25:48 AM 45.1000 -74.6667 55° Northeast 290 334 16,000  Level Montreal Center
Mon 08:26:48 AM 45.1333 -74.5667 65° Northeast 290 334 16,000  Level Montreal Center
Mon 08:27:48 AM 45.1833 -74.4500 59° Northeast 290 334 16,000 -300 Level Montreal Center
Mon 08:28:48 AM 45.2167 -74.3500 65° Northeast 290 334 15,400 -1,050 Descending Montreal Center
Mon 08:29:48 AM 45.2667 -74.2500 55° Northeast 310 357 13,900 -1,500 Descending Montreal Center
Mon 08:30:48 AM 45.3167 -74.1500 55° Northeast 300 345 12,400 -1,350 Descending Montreal Center
Mon 08:31:48 AM 45.3333 -74.0667 74° East 300 345 11,200 -1,300 Descending Montreal Center
Mon 08:32:48 AM 45.4000 -73.9667 46° Northeast 290 334 9,800 -1,350 Descending Montreal Center
Mon 08:33:48 AM 45.4500 -73.8833 49° Northeast 290 334 8,500 -1,300 Descending Montreal Center
Mon 08:34:48 AM 45.5167 -73.8167 35° Northeast 280 322 7,200 -1,250 Descending Montreal Center
Mon 08:35:48 AM 45.5667 -73.7500 43° Northeast 270 311 6,000 -1,900 Descending Montreal Center
Mon 08:36:48 AM 45.6333 -73.6667 41° Northeast 270 311 3,400 -1,500 Descending Montreal Center
Mon 08:37:48 AM 45.6500 -73.6000 70° East 230 265 3,000 -200 Descending Montreal Center
Mon 08:38:48 AM 45.6000 -73.5500 145° Southeast 200 230 3,000 -450 Level Montreal Center
Mon 08:39:48 AM 45.5500 -73.6000 215° Southwest 210 242 2,100 -850 Descending Montreal Center
Mon 08:40:48 AM 45.5167 -73.6500 226° Southwest 150 173 1,300 -750 Descending Montreal Center
Mon 08:41:48 AM 45.4833 -73.6667 199° South 130 150 600 -700 Descending Montreal Center

Login

Don't have an account? Register now (free) for customized features, flight alerts, and more!